Hhl Rio De Janeiro — D5AU2 — position and weather

sailwx.info

Track history (hours):
 
Tides and Currents Weather Stations Pressure Air Temp Water Temp Dewpoint Dewpoint Depression Visibility Wind Speed Wind Dir Waves Ship Positions

Hhl Rio De Janeiro

Last reported at 2016-Apr-09 20:20 UTC. Time now 2016-May-05 10:31 UTC.
Position N 08°11' W 014°43'.
Warning: this ship's position is 25 days out of date.

Length 168 m; draft 7.7 m.

Type: Cargo ship. MMSI: 636092346.

Date/timePositionNaut miles runAvg speedWind from/ knotsBaromVisibWave heightAir tempDewpointWater temp
2016-Apr-09 20:20N 08°11' W 014°43'1113.5
2016-Apr-09 19:31N 08°19' W 014°51'1313.5
2016-Apr-09 18:33N 08°28' W 014°60'2713.3
2016-Apr-09 16:33N 08°46' W 015°19'1413.6
2016-Apr-09 15:34N 08°56' W 015°29'1515.4
2016-Apr-09 14:33N 09°07' W 015°40'1413.7
2016-Apr-09 13:33N 09°17' W 015°50'1714.3
2016-Apr-09 12:22N 09°29' W 016°02'  
2016-Apr-06 04:04N 27°30' W 015°17'815.1
2016-Apr-06 03:33N 27°37' W 015°14'1414.4
2016-Apr-06 02:33N 27°51' W 015°13'1515.0
2016-Apr-06 01:33N 28°06' W 015°19'6 4.7
2016-Apr-06 00:23N 28°08' W 015°24'0 0.0
2016-Apr-05 23:26N 28°08' W 015°24'0 0.0
2016-Apr-05 22:29N 28°08' W 015°24'0 0.0
2016-Apr-05 21:29N 28°08' W 015°24'0 0.0
2016-Apr-05 20:29N 28°08' W 015°24'0 0.0
2016-Apr-05 19:32N 28°08' W 015°24'0 0.0
2016-Apr-05 18:32N 28°08' W 015°24'0 0.0
2016-Apr-05 17:32N 28°08' W 015°24'0 0.0
2016-Apr-05 16:20N 28°08' W 015°24'0 0.0
2016-Apr-05 15:32N 28°08' W 015°24'0 0.0
2016-Apr-05 14:32N 28°08' W 015°24'0 0.0
2016-Apr-05 13:32N 28°08' W 015°24'0 0.0
2016-Apr-05 12:23N 28°08' W 015°24'0 0.0
2016-Apr-05 11:26N 28°08' W 015°24'0 0.0
2016-Apr-05 10:26N 28°08' W 015°24'0 0.0
2016-Apr-05 09:26N 28°08' W 015°24'0 0.0
2016-Apr-05 08:29N 28°08' W 015°24'0 0.1
2016-Apr-05 07:29N 28°08' W 015°24'3 3.6
2016-Apr-05 06:33N 28°07' W 015°21'0 0.1
2016-Apr-05 05:33N 28°07' W 015°21'4 4.5
2016-Apr-05 04:33N 28°09' W 015°16'1010.2
2016-Apr-05 03:33N 28°11' W 015°05'9 9.3
2016-Apr-05 02:33N 28°17' W 014°57'1111.2
2016-Apr-05 01:33N 28°28' W 014°53'1211.6
2016-Apr-05 00:33N 28°39' W 014°49'1111.3
2016-Apr-04 23:33N 28°50' W 014°45'  
2016-Apr-01 16:10N 43°44' W 006°31'1015.5
2016-Apr-01 15:33N 43°42' W 006°18'1413.4
2016-Apr-01 14:32N 43°39' W 005°60'2 0.1
2016-Mar-31 10:18N 43°37' W 005°58'811.0
2016-Mar-31 09:33N 43°45' W 005°59'  
Track history (hours):
 
Tides and Currents Weather Stations Pressure Air Temp Water Temp Dewpoint Dewpoint Depression Visibility Wind Speed Wind Dir Waves Ship Positions

Hhl Rio De Janeiro

Last reported at 2016-Apr-09 20:20 UTC. Time now 2016-May-05 10:31 UTC.
Position N 08°11' W 014°43'.
Warning: this ship's position is 25 days out of date.

Length 168 m; draft 7.7 m.

Type: Cargo ship. MMSI: 636092346.

Date/timePositionNaut miles runAvg speedWind from/ knotsBaromVisibWave heightAir tempDewpointWater temp
2016-Apr-09 20:20N 08°11' W 014°43'1113.5
2016-Apr-09 19:31N 08°19' W 014°51'1313.5
2016-Apr-09 18:33N 08°28' W 014°60'2713.3
2016-Apr-09 16:33N 08°46' W 015°19'1413.6
2016-Apr-09 15:34N 08°56' W 015°29'1515.4
2016-Apr-09 14:33N 09°07' W 015°40'1413.7
2016-Apr-09 13:33N 09°17' W 015°50'1714.3
2016-Apr-09 12:22N 09°29' W 016°02'  
2016-Apr-06 04:04N 27°30' W 015°17'815.1
2016-Apr-06 03:33N 27°37' W 015°14'1414.4
2016-Apr-06 02:33N 27°51' W 015°13'1515.0
2016-Apr-06 01:33N 28°06' W 015°19'6 4.7
2016-Apr-06 00:23N 28°08' W 015°24'0 0.0
2016-Apr-05 23:26N 28°08' W 015°24'0 0.0
2016-Apr-05 22:29N 28°08' W 015°24'0 0.0
2016-Apr-05 21:29N 28°08' W 015°24'0 0.0
2016-Apr-05 20:29N 28°08' W 015°24'0 0.0
2016-Apr-05 19:32N 28°08' W 015°24'0 0.0
2016-Apr-05 18:32N 28°08' W 015°24'0 0.0
2016-Apr-05 17:32N 28°08' W 015°24'0 0.0
2016-Apr-05 16:20N 28°08' W 015°24'0 0.0
2016-Apr-05 15:32N 28°08' W 015°24'0 0.0
2016-Apr-05 14:32N 28°08' W 015°24'0 0.0
2016-Apr-05 13:32N 28°08' W 015°24'0 0.0
2016-Apr-05 12:23N 28°08' W 015°24'0 0.0
2016-Apr-05 11:26N 28°08' W 015°24'0 0.0
2016-Apr-05 10:26N 28°08' W 015°24'0 0.0
2016-Apr-05 09:26N 28°08' W 015°24'0 0.0
2016-Apr-05 08:29N 28°08' W 015°24'0 0.1
2016-Apr-05 07:29N 28°08' W 015°24'3 3.6
2016-Apr-05 06:33N 28°07' W 015°21'0 0.1
2016-Apr-05 05:33N 28°07' W 015°21'4 4.5
2016-Apr-05 04:33N 28°09' W 015°16'1010.2
2016-Apr-05 03:33N 28°11' W 015°05'9 9.3
2016-Apr-05 02:33N 28°17' W 014°57'1111.2
2016-Apr-05 01:33N 28°28' W 014°53'1211.6
2016-Apr-05 00:33N 28°39' W 014°49'1111.3
2016-Apr-04 23:33N 28°50' W 014°45'  
2016-Apr-01 16:10N 43°44' W 006°31'1015.5
2016-Apr-01 15:33N 43°42' W 006°18'1413.4
2016-Apr-01 14:32N 43°39' W 005°60'2 0.1
2016-Mar-31 10:18N 43°37' W 005°58'811.0
2016-Mar-31 09:33N 43°45' W 005°59'  

Dump ship's entire track history